sensor_id;sensor_type;location;lat;lon;timestamp;P1;durP1;ratioP1;P2;durP2;ratioP2
39294;SDS011;52361;52.100;5.248;2023-03-01T00:01:09;13.1;;;7.3;;
39294;SDS011;52361;52.100;5.248;2023-03-01T00:04:25;9.21;;;5.9;;
39294;SDS011;52361;52.100;5.248;2023-03-01T00:06:03;9.1;;;6.4;;
39294;SDS011;52361;52.100;5.248;2023-03-01T00:07:40;9.9;;;6.2;;
39294;SDS011;52361;52.100;5.248;2023-03-01T00:11:00;9.31;;;6.6;;
39294;SDS011;52361;52.100;5.248;2023-03-01T00:12:39;8.4;;;6.4;;
39294;SDS011;52361;52.100;5.248;2023-03-01T00:14:15;9.0;;;6.8;;
39294;SDS011;52361;52.100;5.248;2023-03-01T00:15:51;9.1;;;6.3;;
39294;SDS011;52361;52.100;5.248;2023-03-01T00:19:04;10.7;;;5.8;;
39294;SDS011;52361;52.100;5.248;2023-03-01T00:20:41;11.3;;;6.6;;
39294;SDS011;52361;52.100;5.248;2023-03-01T00:22:17;13.4;;;6.8;;
39294;SDS011;52361;52.100;5.248;2023-03-01T00:25:30;7.9;;;5.9;;
39294;SDS011;52361;52.100;5.248;2023-03-01T00:27:06;9.1;;;6.1;;
39294;SDS011;52361;52.100;5.248;2023-03-01T00:28:43;12.8;;;6.0;;
39294;SDS011;52361;52.100;5.248;2023-03-01T00:30:20;10.21;;;6.6;;
39294;SDS011;52361;52.100;5.248;2023-03-01T00:33:32;9.4;;;6.3;;
39294;SDS011;52361;52.100;5.248;2023-03-01T00:35:09;8.31;;;5.5;;
39294;SDS011;52361;52.100;5.248;2023-03-01T00:36:45;8.31;;;5.5;;
39294;SDS011;52361;52.100;5.248;2023-03-01T00:39:58;14.3;;;6.4;;
39294;SDS011;52361;52.100;5.248;2023-03-01T00:41:34;10.8;;;7.0;;
39294;SDS011;52361;52.100;5.248;2023-03-01T00:43:10;9.6;;;6.2;;
39294;SDS011;52361;52.100;5.248;2023-03-01T00:46:23;7.5;;;5.11;;
39294;SDS011;52361;52.100;5.248;2023-03-01T00:48:02;9.1;;;5.8;;
39294;SDS011;52361;52.100;5.248;2023-03-01T00:49:38;8.4;;;6.0;;
39294;SDS011;52361;52.100;5.248;2023-03-01T00:51:15;10.8;;;6.6;;
39294;SDS011;52361;52.100;5.248;2023-03-01T00:54:30;9.21;;;5.6;;
39294;SDS011;52361;52.100;5.248;2023-03-01T00:56:08;8.1;;;6.0;;
39294;SDS011;52361;52.100;5.248;2023-03-01T00:57:45;8.31;;;5.3;;
39294;SDS011;52361;52.100;5.248;2023-03-01T01:00:58;9.0;;;5.2;;
39294;SDS011;52361;52.100;5.248;2023-03-01T01:02:34;9.21;;;6.4;;
39294;SDS011;52361;52.100;5.248;2023-03-01T01:04:12;12.9;;;6.0;;
39294;SDS011;52361;52.100;5.248;2023-03-01T01:07:25;10.4;;;6.6;;
39294;SDS011;52361;52.100;5.248;2023-03-01T01:09:02;16.2;;;6.4;;
39294;SDS011;52361;52.100;5.248;2023-03-01T01:10:42;7.7;;;5.4;;
39294;SDS011;52361;52.100;5.248;2023-03-01T01:12:20;9.9;;;6.0;;
39294;SDS011;52361;52.100;5.248;2023-03-01T01:15:33;9.1;;;5.11;;
39294;SDS011;52361;52.100;5.248;2023-03-01T01:17:10;11.0;;;6.2;;
39294;SDS011;52361;52.100;5.248;2023-03-01T01:18:46;9.71;;;7.3;;
39294;SDS011;52361;52.100;5.248;2023-03-01T01:21:58;15.9;;;6.3;;
39294;SDS011;52361;52.100;5.248;2023-03-01T01:23:35;11.3;;;5.4;;
39294;SDS011;52361;52.100;5.248;2023-03-01T01:25:12;8.4;;;5.4;;
39294;SDS011;52361;52.100;5.248;2023-03-01T01:26:48;9.9;;;6.3;;
39294;SDS011;52361;52.100;5.248;2023-03-01T01:30:01;10.1;;;5.7;;
39294;SDS011;52361;52.100;5.248;2023-03-01T01:31:39;10.21;;;5.7;;
39294;SDS011;52361;52.100;5.248;2023-03-01T01:33:17;8.1;;;6.3;;
39294;SDS011;52361;52.100;5.248;2023-03-01T01:36:30;8.0;;;5.7;;
39294;SDS011;52361;52.100;5.248;2023-03-01T01:38:09;11.2;;;6.9;;
39294;SDS011;52361;52.100;5.248;2023-03-01T01:39:45;11.8;;;6.5;;
39294;SDS011;52361;52.100;5.248;2023-03-01T01:42:59;10.7;;;6.7;;
39294;SDS011;52361;52.100;5.248;2023-03-01T01:44:35;9.0;;;6.5;;
39294;SDS011;52361;52.100;5.248;2023-03-01T01:46:15;8.0;;;5.6;;
39294;SDS011;52361;52.100;5.248;2023-03-01T01:47:57;11.4;;;6.1;;
39294;SDS011;52361;52.100;5.248;2023-03-01T01:51:22;8.5;;;5.7;;
39294;SDS011;52361;52.100;5.248;2023-03-01T01:53:01;13.2;;;6.6;;
39294;SDS011;52361;52.100;5.248;2023-03-01T01:54:39;10.3;;;6.6;;
39294;SDS011;52361;52.100;5.248;2023-03-01T01:56:21;10.1;;;6.2;;
39294;SDS011;52361;52.100;5.248;2023-03-01T01:59:43;12.3;;;7.8;;
39294;SDS011;52361;52.100;5.248;2023-03-01T02:03:03;10.0;;;5.4;;
39294;SDS011;52361;52.100;5.248;2023-03-01T02:04:44;9.81;;;5.5;;
39294;SDS011;52361;52.100;5.248;2023-03-01T02:08:05;8.6;;;5.8;;
39294;SDS011;52361;52.100;5.248;2023-03-01T02:09:45;10.7;;;5.6;;
39294;SDS011;52361;52.100;5.248;2023-03-01T02:11:24;9.4;;;6.2;;
39294;SDS011;52361;52.100;5.248;2023-03-01T02:13:03;8.9;;;5.8;;
39294;SDS011;52361;52.100;5.248;2023-03-01T02:16:16;8.31;;;6.6;;
39294;SDS011;52361;52.100;5.248;2023-03-01T02:17:53;8.1;;;5.6;;
39294;SDS011;52361;52.100;5.248;2023-03-01T02:19:35;10.8;;;5.7;;
39294;SDS011;52361;52.100;5.248;2023-03-01T02:21:37;9.21;;;6.0;;
39294;SDS011;52361;52.100;5.248;2023-03-01T02:23:24;8.2;;;5.5;;
39294;SDS011;52361;52.100;5.248;2023-03-01T02:26:51;8.31;;;5.6;;
39294;SDS011;52361;52.100;5.248;2023-03-01T02:28:31;11.2;;;6.2;;
39294;SDS011;52361;52.100;5.248;2023-03-01T02:30:09;8.1;;;5.8;;
39294;SDS011;52361;52.100;5.248;2023-03-01T02:31:46;7.7;;;5.6;;
39294;SDS011;52361;52.100;5.248;2023-03-01T02:35:01;6.7;;;5.11;;
39294;SDS011;52361;52.100;5.248;2023-03-01T02:36:38;9.6;;;6.0;;
39294;SDS011;52361;52.100;5.248;2023-03-01T02:38:18;9.1;;;5.5;;
39294;SDS011;52361;52.100;5.248;2023-03-01T02:41:38;9.9;;;5.11;;
39294;SDS011;52361;52.100;5.248;2023-03-01T02:43:17;7.3;;;5.3;;
39294;SDS011;52361;52.100;5.248;2023-03-01T02:44:57;8.6;;;6.2;;
39294;SDS011;52361;52.100;5.248;2023-03-01T02:46:41;10.4;;;6.0;;
39294;SDS011;52361;52.100;5.248;2023-03-01T02:49:55;9.31;;;5.8;;
39294;SDS011;52361;52.100;5.248;2023-03-01T02:51:38;8.9;;;5.4;;
39294;SDS011;52361;52.100;5.248;2023-03-01T02:53:25;13.1;;;5.4;;
39294;SDS011;52361;52.100;5.248;2023-03-01T02:55:10;7.5;;;5.3;;
39294;SDS011;52361;52.100;5.248;2023-03-01T02:56:49;9.81;;;5.8;;
39294;SDS011;52361;52.100;5.248;2023-03-01T03:00:04;5.9;;;4.91;;
39294;SDS011;52361;52.100;5.248;2023-03-01T03:01:44;9.1;;;5.3;;
39294;SDS011;52361;52.100;5.248;2023-03-01T03:03:20;8.2;;;5.2;;
39294;SDS011;52361;52.100;5.248;2023-03-01T03:06:33;12.4;;;6.0;;
39294;SDS011;52361;52.100;5.248;2023-03-01T03:08:10;7.1;;;5.5;;
39294;SDS011;52361;52.100;5.248;2023-03-01T03:09:46;10.0;;;6.9;;
39294;SDS011;52361;52.100;5.248;2023-03-01T03:12:59;8.1;;;5.5;;
39294;SDS011;52361;52.100;5.248;2023-03-01T03:14:37;7.7;;;5.4;;
39294;SDS011;52361;52.100;5.248;2023-03-01T03:16:13;10.1;;;5.9;;
39294;SDS011;52361;52.100;5.248;2023-03-01T03:17:50;9.6;;;5.8;;
39294;SDS011;52361;52.100;5.248;2023-03-01T03:21:06;10.21;;;6.4;;
39294;SDS011;52361;52.100;5.248;2023-03-01T03:22:43;8.2;;;5.2;;
39294;SDS011;52361;52.100;5.248;2023-03-01T03:24:19;12.6;;;6.4;;
39294;SDS011;52361;52.100;5.248;2023-03-01T03:27:31;8.1;;;6.0;;
39294;SDS011;52361;52.100;5.248;2023-03-01T03:29:08;7.2;;;5.11;;
39294;SDS011;52361;52.100;5.248;2023-03-01T03:30:44;7.9;;;5.7;;
39294;SDS011;52361;52.100;5.248;2023-03-01T03:32:20;9.5;;;6.3;;
39294;SDS011;52361;52.100;5.248;2023-03-01T03:35:34;7.5;;;5.5;;
39294;SDS011;52361;52.100;5.248;2023-03-01T03:37:15;8.9;;;5.9;;
39294;SDS011;52361;52.100;5.248;2023-03-01T03:38:51;9.9;;;6.0;;
39294;SDS011;52361;52.100;5.248;2023-03-01T03:42:08;7.7;;;5.4;;
39294;SDS011;52361;52.100;5.248;2023-03-01T03:43:44;8.71;;;5.4;;
39294;SDS011;52361;52.100;5.248;2023-03-01T03:45:20;7.8;;;5.6;;
39294;SDS011;52361;52.100;5.248;2023-03-01T03:48:32;7.8;;;5.6;;
39294;SDS011;52361;52.100;5.248;2023-03-01T03:50:10;14.0;;;6.8;;
39294;SDS011;52361;52.100;5.248;2023-03-01T03:51:47;7.2;;;5.2;;
39294;SDS011;52361;52.100;5.248;2023-03-01T03:53:24;6.1;;;4.61;;
39294;SDS011;52361;52.100;5.248;2023-03-01T03:56:40;7.9;;;6.3;;
39294;SDS011;52361;52.100;5.248;2023-03-01T03:58:16;9.31;;;6.4;;
39294;SDS011;52361;52.100;5.248;2023-03-01T03:59:54;16.8;;;6.9;;
39294;SDS011;52361;52.100;5.248;2023-03-01T04:03:07;10.7;;;5.4;;
39294;SDS011;52361;52.100;5.248;2023-03-01T04:04:45;9.21;;;5.9;;
39294;SDS011;52361;52.100;5.248;2023-03-01T04:06:21;9.4;;;6.0;;
39294;SDS011;52361;52.100;5.248;2023-03-01T04:07:58;9.31;;;5.3;;
39294;SDS011;52361;52.100;5.248;2023-03-01T04:11:11;10.6;;;5.5;;
39294;SDS011;52361;52.100;5.248;2023-03-01T04:12:48;8.2;;;5.7;;
39294;SDS011;52361;52.100;5.248;2023-03-01T04:14:24;8.0;;;6.1;;
39294;SDS011;52361;52.100;5.248;2023-03-01T04:17:37;8.71;;;6.0;;
39294;SDS011;52361;52.100;5.248;2023-03-01T04:19:13;10.21;;;5.7;;
39294;SDS011;52361;52.100;5.248;2023-03-01T04:20:49;8.1;;;5.7;;
39294;SDS011;52361;52.100;5.248;2023-03-01T04:24:02;8.81;;;5.8;;
39294;SDS011;52361;52.100;5.248;2023-03-01T04:25:40;7.0;;;5.6;;
39294;SDS011;52361;52.100;5.248;2023-03-01T04:27:17;8.6;;;6.6;;
39294;SDS011;52361;52.100;5.248;2023-03-01T04:28:54;9.21;;;5.2;;
39294;SDS011;52361;52.100;5.248;2023-03-01T04:32:06;10.6;;;6.6;;
39294;SDS011;52361;52.100;5.248;2023-03-01T04:33:42;11.3;;;6.2;;
39294;SDS011;52361;52.100;5.248;2023-03-01T04:35:20;7.6;;;5.4;;
39294;SDS011;52361;52.100;5.248;2023-03-01T04:38:32;7.9;;;6.0;;
39294;SDS011;52361;52.100;5.248;2023-03-01T04:40:09;17.3;;;5.7;;
39294;SDS011;52361;52.100;5.248;2023-03-01T04:41:46;8.6;;;5.8;;
39294;SDS011;52361;52.100;5.248;2023-03-01T04:44:59;6.7;;;4.7;;
39294;SDS011;52361;52.100;5.248;2023-03-01T04:46:35;12.0;;;5.9;;
39294;SDS011;52361;52.100;5.248;2023-03-01T04:48:12;12.3;;;6.0;;
39294;SDS011;52361;52.100;5.248;2023-03-01T04:49:48;10.0;;;5.3;;
39294;SDS011;52361;52.100;5.248;2023-03-01T04:53:01;6.2;;;4.91;;
39294;SDS011;52361;52.100;5.248;2023-03-01T04:54:38;7.4;;;5.2;;
39294;SDS011;52361;52.100;5.248;2023-03-01T04:56:14;8.1;;;5.5;;
39294;SDS011;52361;52.100;5.248;2023-03-01T04:59:29;12.0;;;6.1;;
39294;SDS011;52361;52.100;5.248;2023-03-01T05:01:08;9.9;;;6.5;;
39294;SDS011;52361;52.100;5.248;2023-03-01T05:02:47;7.5;;;5.0;;
39294;SDS011;52361;52.100;5.248;2023-03-01T05:04:24;8.71;;;5.5;;
39294;SDS011;52361;52.100;5.248;2023-03-01T05:07:36;7.7;;;4.8;;
39294;SDS011;52361;52.100;5.248;2023-03-01T05:09:12;7.6;;;5.8;;
39294;SDS011;52361;52.100;5.248;2023-03-01T05:10:49;6.9;;;5.5;;
39294;SDS011;52361;52.100;5.248;2023-03-01T05:14:04;9.4;;;6.6;;
39294;SDS011;52361;52.100;5.248;2023-03-01T05:15:42;7.8;;;5.6;;
39294;SDS011;52361;52.100;5.248;2023-03-01T05:17:18;8.5;;;6.5;;
39294;SDS011;52361;52.100;5.248;2023-03-01T05:20:30;9.21;;;6.6;;
39294;SDS011;52361;52.100;5.248;2023-03-01T05:22:06;7.4;;;5.2;;
39294;SDS011;52361;52.100;5.248;2023-03-01T05:23:43;10.8;;;5.6;;
39294;SDS011;52361;52.100;5.248;2023-03-01T05:25:20;8.81;;;5.3;;
39294;SDS011;52361;52.100;5.248;2023-03-01T05:28:34;7.6;;;5.8;;
39294;SDS011;52361;52.100;5.248;2023-03-01T05:30:11;7.6;;;5.8;;
39294;SDS011;52361;52.100;5.248;2023-03-01T05:31:48;9.71;;;5.8;;
39294;SDS011;52361;52.100;5.248;2023-03-01T05:35:03;13.6;;;6.9;;
39294;SDS011;52361;52.100;5.248;2023-03-01T05:36:40;8.9;;;5.7;;
39294;SDS011;52361;52.100;5.248;2023-03-01T05:38:16;9.21;;;6.0;;
39294;SDS011;52361;52.100;5.248;2023-03-01T05:41:28;8.1;;;5.0;;
39294;SDS011;52361;52.100;5.248;2023-03-01T05:43:04;10.6;;;6.0;;
39294;SDS011;52361;52.100;5.248;2023-03-01T05:44:41;7.3;;;5.11;;
39294;SDS011;52361;52.100;5.248;2023-03-01T05:46:18;8.9;;;6.3;;
39294;SDS011;52361;52.100;5.248;2023-03-01T05:49:31;10.1;;;6.3;;
39294;SDS011;52361;52.100;5.248;2023-03-01T05:51:07;10.0;;;6.8;;
39294;SDS011;52361;52.100;5.248;2023-03-01T05:52:43;9.0;;;5.4;;
39294;SDS011;52361;52.100;5.248;2023-03-01T05:55:58;8.4;;;5.9;;
39294;SDS011;52361;52.100;5.248;2023-03-01T05:57:35;9.81;;;6.4;;
39294;SDS011;52361;52.100;5.248;2023-03-01T05:59:11;8.0;;;5.4;;
39294;SDS011;52361;52.100;5.248;2023-03-01T06:02:24;10.21;;;5.5;;
39294;SDS011;52361;52.100;5.248;2023-03-01T06:04:00;8.31;;;6.2;;
39294;SDS011;52361;52.100;5.248;2023-03-01T06:05:37;8.81;;;5.7;;
39294;SDS011;52361;52.100;5.248;2023-03-01T06:07:15;10.3;;;6.3;;
39294;SDS011;52361;52.100;5.248;2023-03-01T06:12:05;9.1;;;5.6;;
39294;SDS011;52361;52.100;5.248;2023-03-01T06:13:42;9.1;;;5.9;;
39294;SDS011;52361;52.100;5.248;2023-03-01T06:16:57;12.6;;;7.2;;
39294;SDS011;52361;52.100;5.248;2023-03-01T06:18:34;9.71;;;7.2;;
39294;SDS011;52361;52.100;5.248;2023-03-01T06:20:12;9.31;;;6.2;;
39294;SDS011;52361;52.100;5.248;2023-03-01T06:21:50;10.8;;;6.9;;
39294;SDS011;52361;52.100;5.248;2023-03-01T06:25:02;9.71;;;5.7;;
39294;SDS011;52361;52.100;5.248;2023-03-01T06:26:40;8.9;;;6.1;;
39294;SDS011;52361;52.100;5.248;2023-03-01T06:28:16;9.1;;;5.7;;
39294;SDS011;52361;52.100;5.248;2023-03-01T06:31:29;10.8;;;6.8;;
39294;SDS011;52361;52.100;5.248;2023-03-01T06:33:05;9.5;;;6.0;;
39294;SDS011;52361;52.100;5.248;2023-03-01T06:34:41;8.71;;;6.4;;
39294;SDS011;52361;52.100;5.248;2023-03-01T06:37:53;11.8;;;7.1;;
39294;SDS011;52361;52.100;5.248;2023-03-01T06:39:29;10.9;;;7.0;;
39294;SDS011;52361;52.100;5.248;2023-03-01T06:41:06;8.9;;;6.4;;
39294;SDS011;52361;52.100;5.248;2023-03-01T06:42:46;11.0;;;6.2;;
39294;SDS011;52361;52.100;5.248;2023-03-01T06:46:03;12.5;;;7.0;;
39294;SDS011;52361;52.100;5.248;2023-03-01T06:47:40;9.21;;;5.3;;
39294;SDS011;52361;52.100;5.248;2023-03-01T06:49:16;15.6;;;6.2;;
39294;SDS011;52361;52.100;5.248;2023-03-01T06:52:30;8.81;;;5.5;;
39294;SDS011;52361;52.100;5.248;2023-03-01T06:54:07;7.1;;;6.1;;
39294;SDS011;52361;52.100;5.248;2023-03-01T06:55:43;11.5;;;6.2;;
39294;SDS011;52361;52.100;5.248;2023-03-01T06:57:19;8.5;;;5.9;;
39294;SDS011;52361;52.100;5.248;2023-03-01T07:00:31;10.3;;;6.1;;
39294;SDS011;52361;52.100;5.248;2023-03-01T07:02:09;10.8;;;7.2;;
39294;SDS011;52361;52.100;5.248;2023-03-01T07:03:46;13.1;;;6.4;;
39294;SDS011;52361;52.100;5.248;2023-03-01T07:06:59;11.6;;;7.5;;
39294;SDS011;52361;52.100;5.248;2023-03-01T07:08:35;9.9;;;6.8;;
39294;SDS011;52361;52.100;5.248;2023-03-01T07:10:11;9.9;;;6.8;;
39294;SDS011;52361;52.100;5.248;2023-03-01T07:13:25;10.8;;;6.1;;
39294;SDS011;52361;52.100;5.248;2023-03-01T07:15:02;9.1;;;6.7;;
39294;SDS011;52361;52.100;5.248;2023-03-01T07:16:40;8.31;;;5.7;;
39294;SDS011;52361;52.100;5.248;2023-03-01T07:18:16;10.0;;;6.3;;
39294;SDS011;52361;52.100;5.248;2023-03-01T07:21:29;12.0;;;6.9;;
39294;SDS011;52361;52.100;5.248;2023-03-01T07:23:06;11.6;;;7.2;;
39294;SDS011;52361;52.100;5.248;2023-03-01T07:24:43;9.21;;;5.8;;
39294;SDS011;52361;52.100;5.248;2023-03-01T07:27:55;10.1;;;5.7;;
39294;SDS011;52361;52.100;5.248;2023-03-01T07:29:31;11.7;;;7.3;;
39294;SDS011;52361;52.100;5.248;2023-03-01T07:31:07;8.71;;;6.3;;
39294;SDS011;52361;52.100;5.248;2023-03-01T07:34:20;12.2;;;7.6;;
39294;SDS011;52361;52.100;5.248;2023-03-01T07:35:56;7.7;;;5.5;;
39294;SDS011;52361;52.100;5.248;2023-03-01T07:37:33;11.5;;;6.4;;
39294;SDS011;52361;52.100;5.248;2023-03-01T07:39:09;8.5;;;6.8;;
39294;SDS011;52361;52.100;5.248;2023-03-01T07:42:22;11.0;;;6.0;;
39294;SDS011;52361;52.100;5.248;2023-03-01T07:43:58;8.6;;;6.2;;
39294;SDS011;52361;52.100;5.248;2023-03-01T07:45:35;11.4;;;6.9;;
39294;SDS011;52361;52.100;5.248;2023-03-01T07:48:47;13.2;;;7.0;;
39294;SDS011;52361;52.100;5.248;2023-03-01T07:50:23;10.7;;;7.1;;
39294;SDS011;52361;52.100;5.248;2023-03-01T07:51:59;12.6;;;7.4;;
39294;SDS011;52361;52.100;5.248;2023-03-01T07:55:13;12.1;;;8.2;;
39294;SDS011;52361;52.100;5.248;2023-03-01T07:56:50;13.3;;;8.31;;
39294;SDS011;52361;52.100;5.248;2023-03-01T07:58:26;12.2;;;8.31;;
39294;SDS011;52361;52.100;5.248;2023-03-01T08:01:40;13.5;;;8.31;;
39294;SDS011;52361;52.100;5.248;2023-03-01T08:03:16;13.4;;;7.3;;
39294;SDS011;52361;52.100;5.248;2023-03-01T08:04:53;11.8;;;7.7;;
39294;SDS011;52361;52.100;5.248;2023-03-01T08:06:29;15.3;;;8.71;;
39294;SDS011;52361;52.100;5.248;2023-03-01T08:11:17;12.6;;;7.8;;
39294;SDS011;52361;52.100;5.248;2023-03-01T08:12:54;12.9;;;8.31;;
39294;SDS011;52361;52.100;5.248;2023-03-01T08:16:07;12.9;;;7.9;;
39294;SDS011;52361;52.100;5.248;2023-03-01T08:17:45;16.4;;;7.9;;
39294;SDS011;52361;52.100;5.248;2023-03-01T08:19:25;14.3;;;7.7;;
39294;SDS011;52361;52.100;5.248;2023-03-01T08:21:02;14.1;;;7.3;;
39294;SDS011;52361;52.100;5.248;2023-03-01T08:24:16;13.2;;;7.3;;
39294;SDS011;52361;52.100;5.248;2023-03-01T08:25:52;15.0;;;7.5;;
39294;SDS011;52361;52.100;5.248;2023-03-01T08:27:28;12.0;;;7.6;;
39294;SDS011;52361;52.100;5.248;2023-03-01T08:30:40;15.3;;;8.1;;
39294;SDS011;52361;52.100;5.248;2023-03-01T08:32:17;12.7;;;7.8;;
39294;SDS011;52361;52.100;5.248;2023-03-01T08:33:54;12.0;;;6.7;;
39294;SDS011;52361;52.100;5.248;2023-03-01T08:37:09;14.0;;;7.5;;
39294;SDS011;52361;52.100;5.248;2023-03-01T08:38:45;10.4;;;6.1;;
39294;SDS011;52361;52.100;5.248;2023-03-01T08:40:21;10.3;;;5.7;;
39294;SDS011;52361;52.100;5.248;2023-03-01T08:41:58;14.4;;;7.0;;
39294;SDS011;52361;52.100;5.248;2023-03-01T08:45:10;10.0;;;6.2;;
39294;SDS011;52361;52.100;5.248;2023-03-01T08:46:47;10.4;;;5.9;;
39294;SDS011;52361;52.100;5.248;2023-03-01T08:48:23;13.6;;;6.1;;
39294;SDS011;52361;52.100;5.248;2023-03-01T08:51:38;9.1;;;4.91;;
39294;SDS011;52361;52.100;5.248;2023-03-01T08:53:15;6.0;;;4.5;;
39294;SDS011;52361;52.100;5.248;2023-03-01T08:54:51;9.71;;;5.4;;
39294;SDS011;52361;52.100;5.248;2023-03-01T08:58:03;6.3;;;4.5;;
39294;SDS011;52361;52.100;5.248;2023-03-01T08:59:39;7.6;;;4.7;;
39294;SDS011;52361;52.100;5.248;2023-03-01T09:01:16;7.8;;;4.5;;
39294;SDS011;52361;52.100;5.248;2023-03-01T09:02:55;9.1;;;5.0;;
39294;SDS011;52361;52.100;5.248;2023-03-01T09:06:07;9.9;;;4.8;;
39294;SDS011;52361;52.100;5.248;2023-03-01T09:07:44;8.31;;;4.7;;
39294;SDS011;52361;52.100;5.248;2023-03-01T09:09:20;6.9;;;4.3;;
39294;SDS011;52361;52.100;5.248;2023-03-01T09:12:32;4.1;;;3.6;;
39294;SDS011;52361;52.100;5.248;2023-03-01T09:14:09;8.71;;;4.41;;
39294;SDS011;52361;52.100;5.248;2023-03-01T09:15:45;8.5;;;4.61;;
39294;SDS011;52361;52.100;5.248;2023-03-01T09:18:57;6.2;;;4.41;;
39294;SDS011;52361;52.100;5.248;2023-03-01T09:20:33;7.9;;;4.61;;
39294;SDS011;52361;52.100;5.248;2023-03-01T09:22:09;8.1;;;3.6;;
39294;SDS011;52361;52.100;5.248;2023-03-01T09:23:46;4.91;;;3.7;;
39294;SDS011;52361;52.100;5.248;2023-03-01T09:27:00;6.0;;;3.7;;
39294;SDS011;52361;52.100;5.248;2023-03-01T09:28:36;3.6;;;3.1;;
39294;SDS011;52361;52.100;5.248;2023-03-01T09:30:13;6.9;;;3.9;;
39294;SDS011;52361;52.100;5.248;2023-03-01T09:33:26;6.1;;;3.7;;
39294;SDS011;52361;52.100;5.248;2023-03-01T09:35:03;5.0;;;3.8;;
39294;SDS011;52361;52.100;5.248;2023-03-01T09:36:40;5.8;;;3.3;;
39294;SDS011;52361;52.100;5.248;2023-03-01T09:39:52;6.6;;;3.0;;
39294;SDS011;52361;52.100;5.248;2023-03-01T09:41:36;4.41;;;3.2;;
39294;SDS011;52361;52.100;5.248;2023-03-01T09:43:34;4.2;;;2.21;;
39294;SDS011;52361;52.100;5.248;2023-03-01T09:45:26;5.7;;;3.0;;
39294;SDS011;52361;52.100;5.248;2023-03-01T09:47:09;6.4;;;2.7;;
39294;SDS011;52361;52.100;5.248;2023-03-01T09:48:55;3.6;;;2.5;;
39294;SDS011;52361;52.100;5.248;2023-03-01T09:52:20;3.9;;;2.0;;
39294;SDS011;52361;52.100;5.248;2023-03-01T09:54:05;5.0;;;2.7;;
39294;SDS011;52361;52.100;5.248;2023-03-01T09:55:43;5.6;;;2.9;;
39294;SDS011;52361;52.100;5.248;2023-03-01T09:57:25;4.7;;;2.4;;
39294;SDS011;52361;52.100;5.248;2023-03-01T10:00:59;4.61;;;2.1;;
39294;SDS011;52361;52.100;5.248;2023-03-01T10:02:46;3.8;;;2.5;;
39294;SDS011;52361;52.100;5.248;2023-03-01T10:04:28;4.7;;;2.31;;
39294;SDS011;52361;52.100;5.248;2023-03-01T10:06:18;3.3;;;2.0;;
39294;SDS011;52361;52.100;5.248;2023-03-01T10:08:00;2.7;;;2.0;;
39294;SDS011;52361;52.100;5.248;2023-03-01T10:10:01;3.4;;;2.0;;
39294;SDS011;52361;52.100;5.248;2023-03-01T10:13:21;4.8;;;2.4;;
39294;SDS011;52361;52.100;5.248;2023-03-01T10:15:04;5.4;;;2.8;;
39294;SDS011;52361;52.100;5.248;2023-03-01T10:16:48;2.8;;;1.9;;
39294;SDS011;52361;52.100;5.248;2023-03-01T10:18:29;3.3;;;2.1;;
39294;SDS011;52361;52.100;5.248;2023-03-01T10:22:00;3.4;;;2.4;;
39294;SDS011;52361;52.100;5.248;2023-03-01T10:23:46;5.4;;;3.2;;
39294;SDS011;52361;52.100;5.248;2023-03-01T10:25:31;4.7;;;2.8;;
39294;SDS011;52361;52.100;5.248;2023-03-01T10:27:22;4.7;;;2.8;;
39294;SDS011;52361;52.100;5.248;2023-03-01T10:29:01;3.4;;;2.6;;
39294;SDS011;52361;52.100;5.248;2023-03-01T10:32:17;7.9;;;2.9;;
39294;SDS011;52361;52.100;5.248;2023-03-01T10:33:54;5.11;;;2.8;;
39294;SDS011;52361;52.100;5.248;2023-03-01T10:35:33;5.11;;;2.5;;
39294;SDS011;52361;52.100;5.248;2023-03-01T10:37:10;4.5;;;2.5;;
39294;SDS011;52361;52.100;5.248;2023-03-01T10:40:27;3.6;;;2.21;;
39294;SDS011;52361;52.100;5.248;2023-03-01T10:42:04;3.8;;;2.8;;
39294;SDS011;52361;52.100;5.248;2023-03-01T10:43:54;3.5;;;2.21;;
39294;SDS011;52361;52.100;5.248;2023-03-01T10:45:33;2.5;;;1.7;;
39294;SDS011;52361;52.100;5.248;2023-03-01T10:49:25;2.4;;;1.7;;
39294;SDS011;52361;52.100;5.248;2023-03-01T10:51:05;3.3;;;2.1;;
39294;SDS011;52361;52.100;5.248;2023-03-01T10:52:42;6.1;;;2.0;;
39294;SDS011;52361;52.100;5.248;2023-03-01T10:54:33;3.3;;;2.0;;
39294;SDS011;52361;52.100;5.248;2023-03-01T10:56:10;3.6;;;2.21;;
39294;SDS011;52361;52.100;5.248;2023-03-01T10:59:27;2.5;;;1.9;;
39294;SDS011;52361;52.100;5.248;2023-03-01T11:01:08;2.6;;;2.0;;
39294;SDS011;52361;52.100;5.248;2023-03-01T11:03:08;4.41;;;2.31;;
39294;SDS011;52361;52.100;5.248;2023-03-01T11:04:56;3.2;;;2.7;;
39294;SDS011;52361;52.100;5.248;2023-03-01T11:06:58;5.0;;;2.9;;
39294;SDS011;52361;52.100;5.248;2023-03-01T11:08:37;3.1;;;2.31;;
39294;SDS011;52361;52.100;5.248;2023-03-01T11:13:36;2.9;;;2.4;;
39294;SDS011;52361;52.100;5.248;2023-03-01T11:15:25;3.6;;;2.0;;
39294;SDS011;52361;52.100;5.248;2023-03-01T11:17:04;2.8;;;2.0;;
39294;SDS011;52361;52.100;5.248;2023-03-01T11:18:55;3.3;;;2.21;;
39294;SDS011;52361;52.100;5.248;2023-03-01T11:22:12;3.3;;;2.31;;
39294;SDS011;52361;52.100;5.248;2023-03-01T11:23:53;3.1;;;2.31;;
39294;SDS011;52361;52.100;5.248;2023-03-01T11:25:30;3.3;;;2.31;;
39294;SDS011;52361;52.100;5.248;2023-03-01T11:27:19;2.9;;;1.9;;
39294;SDS011;52361;52.100;5.248;2023-03-01T11:30:43;3.3;;;1.8;;
39294;SDS011;52361;52.100;5.248;2023-03-01T11:32:28;2.5;;;2.31;;
39294;SDS011;52361;52.100;5.248;2023-03-01T11:34:24;3.3;;;2.31;;
39294;SDS011;52361;52.100;5.248;2023-03-01T11:36:26;3.4;;;2.6;;
39294;SDS011;52361;52.100;5.248;2023-03-01T11:38:12;3.6;;;2.31;;
39294;SDS011;52361;52.100;5.248;2023-03-01T11:39:58;3.6;;;2.31;;
39294;SDS011;52361;52.100;5.248;2023-03-01T11:43:26;4.3;;;1.7;;
39294;SDS011;52361;52.100;5.248;2023-03-01T11:45:10;3.3;;;1.9;;
39294;SDS011;52361;52.100;5.248;2023-03-01T11:46:51;5.11;;;1.7;;
39294;SDS011;52361;52.100;5.248;2023-03-01T11:49:16;2.7;;;2.0;;
39294;SDS011;52361;52.100;5.248;2023-03-01T11:54:13;2.7;;;1.6;;
39294;SDS011;52361;52.100;5.248;2023-03-01T11:56:03;3.6;;;1.9;;
39294;SDS011;52361;52.100;5.248;2023-03-01T11:57:57;2.21;;;1.7;;
39294;SDS011;52361;52.100;5.248;2023-03-01T12:00:02;4.1;;;1.6;;
39294;SDS011;52361;52.100;5.248;2023-03-01T12:02:02;2.9;;;1.6;;
39294;SDS011;52361;52.100;5.248;2023-03-01T12:05:03;5.5;;;2.7;;
39294;SDS011;52361;52.100;5.248;2023-03-01T12:07:56;2.5;;;1.9;;
39294;SDS011;52361;52.100;5.248;2023-03-01T12:09:47;3.6;;;2.21;;
39294;SDS011;52361;52.100;5.248;2023-03-01T12:11:39;2.6;;;1.7;;
39294;SDS011;52361;52.100;5.248;2023-03-01T12:13:42;2.21;;;2.0;;
39294;SDS011;52361;52.100;5.248;2023-03-01T12:15:50;2.4;;;1.6;;
39294;SDS011;52361;52.100;5.248;2023-03-01T12:19:55;3.2;;;1.8;;
39294;SDS011;52361;52.100;5.248;2023-03-01T12:21:53;2.0;;;1.4;;
39294;SDS011;52361;52.100;5.248;2023-03-01T12:26:57;4.7;;;2.4;;
39294;SDS011;52361;52.100;5.248;2023-03-01T12:28:55;2.1;;;1.5;;
39294;SDS011;52361;52.100;5.248;2023-03-01T12:31:04;2.8;;;1.9;;
39294;SDS011;52361;52.100;5.248;2023-03-01T12:33:49;4.0;;;2.21;;
39294;SDS011;52361;52.100;5.248;2023-03-01T12:35:36;6.7;;;2.1;;
39294;SDS011;52361;52.100;5.248;2023-03-01T12:37:29;3.6;;;2.21;;
39294;SDS011;52361;52.100;5.248;2023-03-01T12:39:23;3.1;;;2.0;;
39294;SDS011;52361;52.100;5.248;2023-03-01T12:41:40;3.1;;;2.21;;
39294;SDS011;52361;52.100;5.248;2023-03-01T12:43:48;3.8;;;2.31;;
39294;SDS011;52361;52.100;5.248;2023-03-01T12:45:43;5.5;;;2.4;;
39294;SDS011;52361;52.100;5.248;2023-03-01T12:47:35;2.5;;;1.9;;
39294;SDS011;52361;52.100;5.248;2023-03-01T12:49:32;5.7;;;2.4;;
39294;SDS011;52361;52.100;5.248;2023-03-01T12:51:15;2.4;;;1.7;;
39294;SDS011;52361;52.100;5.248;2023-03-01T12:52:57;3.8;;;2.21;;
39294;SDS011;52361;52.100;5.248;2023-03-01T12:56:14;4.8;;;2.4;;
39294;SDS011;52361;52.100;5.248;2023-03-01T12:59:42;4.2;;;2.5;;
39294;SDS011;52361;52.100;5.248;2023-03-01T13:01:31;3.5;;;2.21;;
39294;SDS011;52361;52.100;5.248;2023-03-01T13:05:07;2.9;;;2.1;;
39294;SDS011;52361;52.100;5.248;2023-03-01T13:07:04;2.6;;;2.1;;
39294;SDS011;52361;52.100;5.248;2023-03-01T13:08:53;3.9;;;2.21;;
39294;SDS011;52361;52.100;5.248;2023-03-01T13:10:45;5.6;;;2.5;;
39294;SDS011;52361;52.100;5.248;2023-03-01T13:13:29;2.5;;;2.0;;